sensor_id;sensor_type;location;lat;lon;timestamp;P1;durP1;ratioP1;P2;durP2;ratioP2
48951;SDS011;34758;42.148;24.744;2022-08-01T00:02:16;4.10;;;3.80;;
48951;SDS011;34758;42.148;24.744;2022-08-01T00:04:44;4.03;;;3.72;;
48951;SDS011;34758;42.148;24.744;2022-08-01T00:07:11;4.13;;;3.45;;
48951;SDS011;34758;42.148;24.744;2022-08-01T00:09:38;4.22;;;3.67;;
48951;SDS011;34758;42.148;24.744;2022-08-01T00:12:09;4.20;;;3.80;;
48951;SDS011;34758;42.148;24.744;2022-08-01T00:14:36;3.72;;;3.35;;
48951;SDS011;34758;42.148;24.744;2022-08-01T00:17:03;4.13;;;3.83;;
48951;SDS011;34758;42.148;24.744;2022-08-01T00:19:30;5.00;;;3.63;;
48951;SDS011;34758;42.148;24.744;2022-08-01T00:21:57;3.42;;;3.13;;
48951;SDS011;34758;42.148;24.744;2022-08-01T00:24:24;3.00;;;2.80;;
48951;SDS011;34758;42.148;24.744;2022-08-01T00:26:51;3.65;;;3.35;;
48951;SDS011;34758;42.148;24.744;2022-08-01T00:29:20;4.18;;;3.08;;
48951;SDS011;34758;42.148;24.744;2022-08-01T00:31:47;4.43;;;3.67;;
48951;SDS011;34758;42.148;24.744;2022-08-01T00:34:15;3.80;;;3.10;;
48951;SDS011;34758;42.148;24.744;2022-08-01T00:36:41;5.20;;;3.42;;
48951;SDS011;34758;42.148;24.744;2022-08-01T00:39:09;3.63;;;3.42;;
48951;SDS011;34758;42.148;24.744;2022-08-01T00:41:36;3.90;;;3.60;;
48951;SDS011;34758;42.148;24.744;2022-08-01T00:44:03;4.03;;;3.47;;
48951;SDS011;34758;42.148;24.744;2022-08-01T00:46:32;3.53;;;3.22;;
48951;SDS011;34758;42.148;24.744;2022-08-01T00:48:59;3.80;;;3.50;;
48951;SDS011;34758;42.148;24.744;2022-08-01T00:51:27;3.83;;;3.53;;
48951;SDS011;34758;42.148;24.744;2022-08-01T00:53:54;3.45;;;3.20;;
48951;SDS011;34758;42.148;24.744;2022-08-01T00:56:24;4.18;;;3.78;;
48951;SDS011;34758;42.148;24.744;2022-08-01T00:58:52;3.97;;;3.63;;
48951;SDS011;34758;42.148;24.744;2022-08-01T01:01:19;3.67;;;3.38;;
48951;SDS011;34758;42.148;24.744;2022-08-01T01:03:48;3.60;;;3.30;;
48951;SDS011;34758;42.148;24.744;2022-08-01T01:06:23;3.05;;;2.85;;
48951;SDS011;34758;42.148;24.744;2022-08-01T01:08:55;3.22;;;2.95;;
48951;SDS011;34758;42.148;24.744;2022-08-01T01:11:28;4.13;;;3.63;;
48951;SDS011;34758;42.148;24.744;2022-08-01T01:14:00;3.50;;;3.10;;
48951;SDS011;34758;42.148;24.744;2022-08-01T01:18:58;3.60;;;3.30;;
48951;SDS011;34758;42.148;24.744;2022-08-01T01:24:20;3.35;;;3.15;;
48951;SDS011;34758;42.148;24.744;2022-08-01T01:26:52;3.95;;;3.17;;
48951;SDS011;34758;42.148;24.744;2022-08-01T01:29:25;3.40;;;3.20;;
48951;SDS011;34758;42.148;24.744;2022-08-01T01:31:56;3.00;;;2.80;;
48951;SDS011;34758;42.148;24.744;2022-08-01T01:34:26;3.13;;;2.88;;
48951;SDS011;34758;42.148;24.744;2022-08-01T01:36:56;4.05;;;3.25;;
48951;SDS011;34758;42.148;24.744;2022-08-01T01:39:25;3.70;;;3.40;;
48951;SDS011;34758;42.148;24.744;2022-08-01T01:41:52;3.17;;;2.95;;
48951;SDS011;34758;42.148;24.744;2022-08-01T01:44:20;3.35;;;3.15;;
48951;SDS011;34758;42.148;24.744;2022-08-01T01:46:50;4.03;;;2.97;;
48951;SDS011;34758;42.148;24.744;2022-08-01T01:49:18;3.28;;;3.08;;
48951;SDS011;34758;42.148;24.744;2022-08-01T01:51:46;3.00;;;2.80;;
48951;SDS011;34758;42.148;24.744;2022-08-01T01:54:14;3.90;;;3.25;;
48951;SDS011;34758;42.148;24.744;2022-08-01T01:56:41;3.13;;;2.92;;
48951;SDS011;34758;42.148;24.744;2022-08-01T01:59:15;7.32;;;2.95;;
48951;SDS011;34758;42.148;24.744;2022-08-01T02:01:43;3.70;;;3.40;;
48951;SDS011;34758;42.148;24.744;2022-08-01T02:04:12;3.13;;;2.90;;
48951;SDS011;34758;42.148;24.744;2022-08-01T02:06:39;3.25;;;2.97;;
48951;SDS011;34758;42.148;24.744;2022-08-01T02:09:07;4.07;;;3.15;;
48951;SDS011;34758;42.148;24.744;2022-08-01T02:11:35;3.65;;;3.15;;
48951;SDS011;34758;42.148;24.744;2022-08-01T02:14:03;3.35;;;2.90;;
48951;SDS011;34758;42.148;24.744;2022-08-01T02:16:31;3.50;;;2.97;;
48951;SDS011;34758;42.148;24.744;2022-08-01T02:19:01;4.20;;;3.00;;
48951;SDS011;34758;42.148;24.744;2022-08-01T02:21:32;3.63;;;3.28;;
48951;SDS011;34758;42.148;24.744;2022-08-01T02:24:03;2.95;;;2.75;;
48951;SDS011;34758;42.148;24.744;2022-08-01T02:26:36;3.83;;;2.92;;
48951;SDS011;34758;42.148;24.744;2022-08-01T02:29:06;3.53;;;2.80;;
48951;SDS011;34758;42.148;24.744;2022-08-01T02:31:35;2.92;;;2.67;;
48951;SDS011;34758;42.148;24.744;2022-08-01T02:36:34;3.03;;;2.67;;
48951;SDS011;34758;42.148;24.744;2022-08-01T02:39:03;3.13;;;2.83;;
48951;SDS011;34758;42.148;24.744;2022-08-01T02:41:33;3.25;;;3.05;;
48951;SDS011;34758;42.148;24.744;2022-08-01T02:44:03;2.70;;;2.50;;
48951;SDS011;34758;42.148;24.744;2022-08-01T02:46:36;2.83;;;2.60;;
48951;SDS011;34758;42.148;24.744;2022-08-01T02:49:04;3.05;;;2.75;;
48951;SDS011;34758;42.148;24.744;2022-08-01T02:51:35;3.05;;;2.80;;
48951;SDS011;34758;42.148;24.744;2022-08-01T02:54:03;2.70;;;2.50;;
48951;SDS011;34758;42.148;24.744;2022-08-01T02:56:31;2.70;;;2.50;;
48951;SDS011;34758;42.148;24.744;2022-08-01T02:59:03;3.10;;;2.80;;
48951;SDS011;34758;42.148;24.744;2022-08-01T03:01:31;3.15;;;2.72;;
48951;SDS011;34758;42.148;24.744;2022-08-01T03:04:00;2.47;;;2.35;;
48951;SDS011;34758;42.148;24.744;2022-08-01T03:06:27;2.90;;;2.70;;
48951;SDS011;34758;42.148;24.744;2022-08-01T03:08:56;2.92;;;2.67;;
48951;SDS011;34758;42.148;24.744;2022-08-01T03:11:24;2.65;;;2.45;;
48951;SDS011;34758;42.148;24.744;2022-08-01T03:13:52;3.15;;;2.58;;
48951;SDS011;34758;42.148;24.744;2022-08-01T03:16:20;4.68;;;2.65;;
48951;SDS011;34758;42.148;24.744;2022-08-01T03:18:48;4.70;;;2.40;;
48951;SDS011;34758;42.148;24.744;2022-08-01T03:21:19;4.15;;;2.92;;
48951;SDS011;34758;42.148;24.744;2022-08-01T03:23:47;3.97;;;2.42;;
48951;SDS011;34758;42.148;24.744;2022-08-01T03:26:16;2.72;;;2.30;;
48951;SDS011;34758;42.148;24.744;2022-08-01T03:28:44;2.83;;;2.50;;
48951;SDS011;34758;42.148;24.744;2022-08-01T03:31:12;2.55;;;2.35;;
48951;SDS011;34758;42.148;24.744;2022-08-01T03:33:41;3.60;;;2.20;;
48951;SDS011;34758;42.148;24.744;2022-08-01T03:36:08;3.30;;;2.60;;
48951;SDS011;34758;42.148;24.744;2022-08-01T03:38:37;2.38;;;2.17;;
48951;SDS011;34758;42.148;24.744;2022-08-01T03:41:06;6.78;;;1.70;;
48951;SDS011;34758;42.148;24.744;2022-08-01T03:43:38;2.20;;;2.00;;
48951;SDS011;34758;42.148;24.744;2022-08-01T03:46:09;3.22;;;2.25;;
48951;SDS011;34758;42.148;24.744;2022-08-01T03:48:39;4.25;;;2.03;;
48951;SDS011;34758;42.148;24.744;2022-08-01T03:51:09;3.75;;;2.15;;
48951;SDS011;34758;42.148;24.744;2022-08-01T03:53:37;3.75;;;1.75;;
48951;SDS011;34758;42.148;24.744;2022-08-01T03:56:05;2.65;;;2.10;;
48951;SDS011;34758;42.148;24.744;2022-08-01T03:58:35;3.00;;;1.88;;
48951;SDS011;34758;42.148;24.744;2022-08-01T04:01:04;3.08;;;2.17;;
48951;SDS011;34758;42.148;24.744;2022-08-01T04:03:32;3.00;;;2.28;;
48951;SDS011;34758;42.148;24.744;2022-08-01T04:06:00;3.38;;;2.60;;
48951;SDS011;34758;42.148;24.744;2022-08-01T04:08:34;2.92;;;2.53;;
48951;SDS011;34758;42.148;24.744;2022-08-01T04:11:02;2.30;;;2.10;;
48951;SDS011;34758;42.148;24.744;2022-08-01T04:13:29;3.50;;;2.45;;
48951;SDS011;34758;42.148;24.744;2022-08-01T04:15:58;4.85;;;2.50;;
48951;SDS011;34758;42.148;24.744;2022-08-01T04:18:25;2.47;;;2.28;;
48951;SDS011;34758;42.148;24.744;2022-08-01T04:20:53;4.75;;;2.25;;
48951;SDS011;34758;42.148;24.744;2022-08-01T04:23:20;3.08;;;2.38;;
48951;SDS011;34758;42.148;24.744;2022-08-01T04:25:50;3.40;;;2.40;;
48951;SDS011;34758;42.148;24.744;2022-08-01T04:28:17;4.90;;;2.17;;
48951;SDS011;34758;42.148;24.744;2022-08-01T04:30:46;3.78;;;2.45;;
48951;SDS011;34758;42.148;24.744;2022-08-01T04:33:15;3.58;;;2.05;;
48951;SDS011;34758;42.148;24.744;2022-08-01T04:35:45;5.03;;;2.30;;
48951;SDS011;34758;42.148;24.744;2022-08-01T04:38:13;2.60;;;2.40;;
48951;SDS011;34758;42.148;24.744;2022-08-01T04:40:43;4.75;;;2.28;;
48951;SDS011;34758;42.148;24.744;2022-08-01T04:43:11;4.05;;;2.90;;
48951;SDS011;34758;42.148;24.744;2022-08-01T04:45:38;2.33;;;2.13;;
48951;SDS011;34758;42.148;24.744;2022-08-01T04:48:05;3.67;;;2.00;;
48951;SDS011;34758;42.148;24.744;2022-08-01T04:50:35;2.30;;;2.10;;
48951;SDS011;34758;42.148;24.744;2022-08-01T04:53:03;3.33;;;2.40;;
48951;SDS011;34758;42.148;24.744;2022-08-01T04:55:30;2.80;;;2.15;;
48951;SDS011;34758;42.148;24.744;2022-08-01T04:57:57;10.10;;;3.40;;
48951;SDS011;34758;42.148;24.744;2022-08-01T05:00:24;4.82;;;2.72;;
48951;SDS011;34758;42.148;24.744;2022-08-01T05:02:51;2.38;;;2.13;;
48951;SDS011;34758;42.148;24.744;2022-08-01T05:05:18;5.75;;;2.80;;
48951;SDS011;34758;42.148;24.744;2022-08-01T05:07:47;3.58;;;2.35;;
48951;SDS011;34758;42.148;24.744;2022-08-01T05:10:14;6.55;;;2.50;;
48951;SDS011;34758;42.148;24.744;2022-08-01T05:12:41;5.60;;;3.00;;
48951;SDS011;34758;42.148;24.744;2022-08-01T05:15:08;3.55;;;2.25;;
48951;SDS011;34758;42.148;24.744;2022-08-01T05:17:36;4.03;;;2.45;;
48951;SDS011;34758;42.148;24.744;2022-08-01T05:20:03;6.55;;;2.78;;
48951;SDS011;34758;42.148;24.744;2022-08-01T05:22:31;5.18;;;2.92;;
48951;SDS011;34758;42.148;24.744;2022-08-01T05:25:00;2.72;;;2.25;;
48951;SDS011;34758;42.148;24.744;2022-08-01T05:29:57;3.47;;;2.10;;
48951;SDS011;34758;42.148;24.744;2022-08-01T05:32:24;4.90;;;2.10;;
48951;SDS011;34758;42.148;24.744;2022-08-01T05:34:51;5.57;;;2.05;;
48951;SDS011;34758;42.148;24.744;2022-08-01T05:37:18;3.92;;;1.60;;
48951;SDS011;34758;42.148;24.744;2022-08-01T05:39:45;6.55;;;2.08;;
48951;SDS011;34758;42.148;24.744;2022-08-01T05:42:14;8.95;;;2.35;;
48951;SDS011;34758;42.148;24.744;2022-08-01T05:44:41;10.70;;;1.80;;
48951;SDS011;34758;42.148;24.744;2022-08-01T05:47:08;4.03;;;1.65;;
48951;SDS011;34758;42.148;24.744;2022-08-01T05:49:35;14.32;;;2.28;;
48951;SDS011;34758;42.148;24.744;2022-08-01T05:52:02;7.30;;;6.60;;
48951;SDS011;34758;42.148;24.744;2022-08-01T05:54:30;6.70;;;4.68;;
48951;SDS011;34758;42.148;24.744;2022-08-01T05:56:57;3.13;;;2.38;;
48951;SDS011;34758;42.148;24.744;2022-08-01T05:59:28;6.68;;;1.67;;
48951;SDS011;34758;42.148;24.744;2022-08-01T06:01:55;2.40;;;1.20;;
48951;SDS011;34758;42.148;24.744;2022-08-01T06:04:22;6.43;;;1.40;;
48951;SDS011;34758;42.148;24.744;2022-08-01T06:06:49;4.15;;;1.77;;
48951;SDS011;34758;42.148;24.744;2022-08-01T06:09:16;13.70;;;2.10;;
48951;SDS011;34758;42.148;24.744;2022-08-01T06:11:44;4.00;;;1.67;;
48951;SDS011;34758;42.148;24.744;2022-08-01T06:14:11;6.38;;;1.30;;
48951;SDS011;34758;42.148;24.744;2022-08-01T06:16:39;4.07;;;1.50;;
48951;SDS011;34758;42.148;24.744;2022-08-01T06:19:06;3.15;;;1.10;;
48951;SDS011;34758;42.148;24.744;2022-08-01T06:21:33;6.43;;;1.65;;
48951;SDS011;34758;42.148;24.744;2022-08-01T06:24:00;5.82;;;1.30;;
48951;SDS011;34758;42.148;24.744;2022-08-01T06:26:27;1.73;;;1.15;;
48951;SDS011;34758;42.148;24.744;2022-08-01T06:28:54;2.25;;;1.08;;
48951;SDS011;34758;42.148;24.744;2022-08-01T06:31:22;1.73;;;1.00;;
48951;SDS011;34758;42.148;24.744;2022-08-01T06:33:51;4.72;;;1.17;;
48951;SDS011;34758;42.148;24.744;2022-08-01T06:36:18;2.08;;;1.00;;
48951;SDS011;34758;42.148;24.744;2022-08-01T06:38:45;2.38;;;0.80;;
48951;SDS011;34758;42.148;24.744;2022-08-01T06:41:13;1.98;;;1.00;;
48951;SDS011;34758;42.148;24.744;2022-08-01T06:43:40;2.58;;;1.00;;
48951;SDS011;34758;42.148;24.744;2022-08-01T06:46:08;1.75;;;1.10;;
48951;SDS011;34758;42.148;24.744;2022-08-01T06:48:35;1.80;;;1.20;;
48951;SDS011;34758;42.148;24.744;2022-08-01T06:51:05;2.63;;;1.15;;
48951;SDS011;34758;42.148;24.744;2022-08-01T06:53:38;2.85;;;1.25;;
48951;SDS011;34758;42.148;24.744;2022-08-01T06:56:06;2.13;;;0.90;;
48951;SDS011;34758;42.148;24.744;2022-08-01T06:58:33;4.43;;;0.85;;
48951;SDS011;34758;42.148;24.744;2022-08-01T07:01:02;2.03;;;1.20;;
48951;SDS011;34758;42.148;24.744;2022-08-01T07:03:31;2.07;;;1.17;;
48951;SDS011;34758;42.148;24.744;2022-08-01T07:05:58;1.60;;;1.23;;
48951;SDS011;34758;42.148;24.744;2022-08-01T07:08:27;3.30;;;1.20;;
48951;SDS011;34758;42.148;24.744;2022-08-01T07:10:54;3.25;;;1.10;;
48951;SDS011;34758;42.148;24.744;2022-08-01T07:13:24;4.00;;;1.35;;
48951;SDS011;34758;42.148;24.744;2022-08-01T07:15:52;3.55;;;1.75;;
48951;SDS011;34758;42.148;24.744;2022-08-01T07:18:19;7.00;;;3.03;;
48951;SDS011;34758;42.148;24.744;2022-08-01T07:20:47;4.57;;;1.95;;
48951;SDS011;34758;42.148;24.744;2022-08-01T07:23:13;3.92;;;1.50;;
48951;SDS011;34758;42.148;24.744;2022-08-01T07:25:42;6.60;;;2.20;;
48951;SDS011;34758;42.148;24.744;2022-08-01T07:28:09;3.88;;;1.30;;
48951;SDS011;34758;42.148;24.744;2022-08-01T07:30:36;2.53;;;1.48;;
48951;SDS011;34758;42.148;24.744;2022-08-01T07:33:03;4.65;;;1.20;;
48951;SDS011;34758;42.148;24.744;2022-08-01T07:35:30;2.00;;;1.08;;
48951;SDS011;34758;42.148;24.744;2022-08-01T07:37:57;2.95;;;1.10;;
48951;SDS011;34758;42.148;24.744;2022-08-01T07:40:24;4.57;;;2.05;;
48951;SDS011;34758;42.148;24.744;2022-08-01T07:42:52;1.45;;;1.30;;
48951;SDS011;34758;42.148;24.744;2022-08-01T07:45:22;1.65;;;0.88;;
48951;SDS011;34758;42.148;24.744;2022-08-01T07:47:49;3.65;;;1.00;;
48951;SDS011;34758;42.148;24.744;2022-08-01T07:50:17;3.17;;;1.20;;
48951;SDS011;34758;42.148;24.744;2022-08-01T07:52:43;2.42;;;1.08;;
48951;SDS011;34758;42.148;24.744;2022-08-01T07:55:11;3.45;;;1.33;;
48951;SDS011;34758;42.148;24.744;2022-08-01T07:57:38;3.58;;;1.30;;
48951;SDS011;34758;42.148;24.744;2022-08-01T08:00:08;3.85;;;0.85;;
48951;SDS011;34758;42.148;24.744;2022-08-01T08:02:36;1.45;;;0.77;;
48951;SDS011;34758;42.148;24.744;2022-08-01T08:05:03;2.67;;;1.00;;
48951;SDS011;34758;42.148;24.744;2022-08-01T08:07:31;2.75;;;0.70;;
48951;SDS011;34758;42.148;24.744;2022-08-01T08:09:59;4.57;;;0.88;;
48951;SDS011;34758;42.148;24.744;2022-08-01T08:12:26;4.25;;;1.35;;
48951;SDS011;34758;42.148;24.744;2022-08-01T08:14:53;4.18;;;1.08;;
48951;SDS011;34758;42.148;24.744;2022-08-01T08:17:22;2.83;;;0.80;;
48951;SDS011;34758;42.148;24.744;2022-08-01T08:19:49;4.10;;;0.88;;
48951;SDS011;34758;42.148;24.744;2022-08-01T08:22:16;2.22;;;1.23;;
48951;SDS011;34758;42.148;24.744;2022-08-01T08:24:43;1.67;;;0.70;;
48951;SDS011;34758;42.148;24.744;2022-08-01T08:27:10;3.63;;;0.93;;
48951;SDS011;34758;42.148;24.744;2022-08-01T08:29:37;2.72;;;0.77;;
48951;SDS011;34758;42.148;24.744;2022-08-01T08:32:04;3.63;;;0.98;;
48951;SDS011;34758;42.148;24.744;2022-08-01T08:34:34;4.57;;;0.82;;
48951;SDS011;34758;42.148;24.744;2022-08-01T08:37:01;3.78;;;1.00;;
48951;SDS011;34758;42.148;24.744;2022-08-01T08:39:28;2.17;;;1.25;;
48951;SDS011;34758;42.148;24.744;2022-08-01T08:42:00;2.88;;;0.80;;
48951;SDS011;34758;42.148;24.744;2022-08-01T08:44:27;1.30;;;0.75;;
48951;SDS011;34758;42.148;24.744;2022-08-01T08:46:55;1.42;;;0.73;;
48951;SDS011;34758;42.148;24.744;2022-08-01T08:49:25;2.00;;;1.00;;
48951;SDS011;34758;42.148;24.744;2022-08-01T08:51:59;3.45;;;1.05;;
48951;SDS011;34758;42.148;24.744;2022-08-01T08:54:27;5.35;;;1.05;;
48951;SDS011;34758;42.148;24.744;2022-08-01T08:56:56;1.83;;;0.75;;
48951;SDS011;34758;42.148;24.744;2022-08-01T08:59:24;1.40;;;0.60;;
48951;SDS011;34758;42.148;24.744;2022-08-01T09:01:51;2.10;;;0.85;;
48951;SDS011;34758;42.148;24.744;2022-08-01T09:04:19;2.53;;;0.73;;
48951;SDS011;34758;42.148;24.744;2022-08-01T09:06:47;2.70;;;1.17;;
48951;SDS011;34758;42.148;24.744;2022-08-01T09:09:16;1.38;;;0.90;;
48951;SDS011;34758;42.148;24.744;2022-08-01T09:11:43;2.05;;;0.90;;
48951;SDS011;34758;42.148;24.744;2022-08-01T09:14:11;1.85;;;0.70;;
48951;SDS011;34758;42.148;24.744;2022-08-01T09:16:40;0.88;;;0.70;;
48951;SDS011;34758;42.148;24.744;2022-08-01T09:19:09;1.25;;;0.70;;
48951;SDS011;34758;42.148;24.744;2022-08-01T09:21:38;1.92;;;0.60;;
48951;SDS011;34758;42.148;24.744;2022-08-01T09:24:13;0.82;;;0.68;;
48951;SDS011;34758;42.148;24.744;2022-08-01T09:26:44;2.33;;;0.63;;
48951;SDS011;34758;42.148;24.744;2022-08-01T09:29:17;3.35;;;0.60;;
48951;SDS011;34758;42.148;24.744;2022-08-01T09:31:46;2.90;;;0.80;;
48951;SDS011;34758;42.148;24.744;2022-08-01T09:34:14;1.65;;;0.60;;
48951;SDS011;34758;42.148;24.744;2022-08-01T09:36:48;2.05;;;0.60;;
48951;SDS011;34758;42.148;24.744;2022-08-01T09:39:21;3.35;;;0.80;;
48951;SDS011;34758;42.148;24.744;2022-08-01T09:41:50;2.72;;;0.93;;
48951;SDS011;34758;42.148;24.744;2022-08-01T09:44:18;1.23;;;0.80;;
48951;SDS011;34758;42.148;24.744;2022-08-01T09:46:48;1.85;;;0.77;;
48951;SDS011;34758;42.148;24.744;2022-08-01T09:49:26;2.25;;;0.68;;
48951;SDS011;34758;42.148;24.744;2022-08-01T09:51:54;2.35;;;0.70;;
48951;SDS011;34758;42.148;24.744;2022-08-01T09:54:29;1.25;;;0.88;;
48951;SDS011;34758;42.148;24.744;2022-08-01T09:57:06;1.63;;;1.00;;
48951;SDS011;34758;42.148;24.744;2022-08-01T09:59:38;1.58;;;0.60;;
48951;SDS011;34758;42.148;24.744;2022-08-01T10:02:07;0.77;;;0.60;;
48951;SDS011;34758;42.148;24.744;2022-08-01T10:04:35;1.50;;;0.73;;
48951;SDS011;34758;42.148;24.744;2022-08-01T10:07:03;9.52;;;0.80;;
48951;SDS011;34758;42.148;24.744;2022-08-01T10:09:33;2.88;;;0.80;;
48951;SDS011;34758;42.148;24.744;2022-08-01T10:12:02;2.05;;;1.02;;
48951;SDS011;34758;42.148;24.744;2022-08-01T10:14:30;3.35;;;0.90;;
48951;SDS011;34758;42.148;24.744;2022-08-01T10:16:59;2.22;;;0.85;;
48951;SDS011;34758;42.148;24.744;2022-08-01T10:19:27;3.15;;;0.80;;
48951;SDS011;34758;42.148;24.744;2022-08-01T10:21:56;1.17;;;0.70;;
48951;SDS011;34758;42.148;24.744;2022-08-01T10:24:25;1.33;;;0.90;;
48951;SDS011;34758;42.148;24.744;2022-08-01T10:26:56;1.98;;;0.70;;
48951;SDS011;34758;42.148;24.744;2022-08-01T10:29:28;5.63;;;1.10;;
48951;SDS011;34758;42.148;24.744;2022-08-01T10:31:58;1.40;;;0.70;;
48951;SDS011;34758;42.148;24.744;2022-08-01T10:34:25;1.70;;;0.77;;
48951;SDS011;34758;42.148;24.744;2022-08-01T10:36:52;4.32;;;1.30;;
48951;SDS011;34758;42.148;24.744;2022-08-01T10:39:20;2.28;;;0.80;;
48951;SDS011;34758;42.148;24.744;2022-08-01T10:41:48;3.10;;;1.25;;
48951;SDS011;34758;42.148;24.744;2022-08-01T10:44:16;3.20;;;2.83;;
48951;SDS011;34758;42.148;24.744;2022-08-01T10:46:45;8.10;;;4.43;;
48951;SDS011;34758;42.148;24.744;2022-08-01T10:49:15;11.07;;;3.33;;
48951;SDS011;34758;42.148;24.744;2022-08-01T10:51:43;8.75;;;5.95;;
48951;SDS011;34758;42.148;24.744;2022-08-01T10:54:12;12.20;;;9.10;;
48951;SDS011;34758;42.148;24.744;2022-08-01T10:56:39;10.05;;;7.50;;
48951;SDS011;34758;42.148;24.744;2022-08-01T10:59:06;4.90;;;4.40;;
48951;SDS011;34758;42.148;24.744;2022-08-01T11:01:35;2.63;;;2.25;;
48951;SDS011;34758;42.148;24.744;2022-08-01T11:04:06;1.13;;;0.93;;
48951;SDS011;34758;42.148;24.744;2022-08-01T11:06:42;1.88;;;0.80;;
48951;SDS011;34758;42.148;24.744;2022-08-01T11:09:29;3.30;;;0.95;;
48951;SDS011;34758;42.148;24.744;2022-08-01T11:11:59;1.48;;;0.90;;
48951;SDS011;34758;42.148;24.744;2022-08-01T11:16:56;4.65;;;1.30;;
48951;SDS011;34758;42.148;24.744;2022-08-01T11:20:05;4.38;;;2.92;;
48951;SDS011;34758;42.148;24.744;2022-08-01T11:28:48;8.57;;;5.82;;
48951;SDS011;34758;42.148;24.744;2022-08-01T11:31:43;20.67;;;15.15;;
48951;SDS011;34758;42.148;24.744;2022-08-01T11:34:12;12.38;;;7.78;;
48951;SDS011;34758;42.148;24.744;2022-08-01T11:36:39;3.60;;;2.03;;
48951;SDS011;34758;42.148;24.744;2022-08-01T11:39:10;2.30;;;0.90;;
48951;SDS011;34758;42.148;24.744;2022-08-01T11:41:42;1.45;;;1.13;;
48951;SDS011;34758;42.148;24.744;2022-08-01T11:44:10;1.00;;;0.85;;
48951;SDS011;34758;42.148;24.744;2022-08-01T11:46:46;5.78;;;1.58;;
48951;SDS011;34758;42.148;24.744;2022-08-01T11:52:16;1.70;;;1.13;;
48951;SDS011;34758;42.148;24.744;2022-08-01T11:54:47;5.15;;;1.20;;
48951;SDS011;34758;42.148;24.744;2022-08-01T11:57:17;2.10;;;0.73;;
48951;SDS011;34758;42.148;24.744;2022-08-01T11:59:45;3.07;;;0.80;;
48951;SDS011;34758;42.148;24.744;2022-08-01T12:02:15;3.38;;;1.92;;
48951;SDS011;34758;42.148;24.744;2022-08-01T12:04:48;4.32;;;1.98;;
48951;SDS011;34758;42.148;24.744;2022-08-01T12:07:20;3.25;;;1.55;;
48951;SDS011;34758;42.148;24.744;2022-08-01T12:09:55;1.40;;;0.60;;
48951;SDS011;34758;42.148;24.744;2022-08-01T12:12:23;3.90;;;1.17;;
48951;SDS011;34758;42.148;24.744;2022-08-01T12:14:52;0.93;;;0.80;;
48951;SDS011;34758;42.148;24.744;2022-08-01T12:17:30;1.58;;;0.90;;
48951;SDS011;34758;42.148;24.744;2022-08-01T12:20:00;2.10;;;0.95;;
48951;SDS011;34758;42.148;24.744;2022-08-01T12:22:27;1.25;;;0.90;;
48951;SDS011;34758;42.148;24.744;2022-08-01T12:24:55;1.73;;;0.88;;
48951;SDS011;34758;42.148;24.744;2022-08-01T12:27:26;1.38;;;1.02;;
48951;SDS011;34758;42.148;24.744;2022-08-01T12:29:55;1.70;;;0.90;;
48951;SDS011;34758;42.148;24.744;2022-08-01T12:32:23;0.80;;;0.80;;
48951;SDS011;34758;42.148;24.744;2022-08-01T12:34:51;1.52;;;0.77;;
48951;SDS011;34758;42.148;24.744;2022-08-01T12:37:21;3.30;;;0.80;;
48951;SDS011;34758;42.148;24.744;2022-08-01T12:39:50;3.70;;;1.60;;
48951;SDS011;34758;42.148;24.744;2022-08-01T12:42:17;3.13;;;0.82;;
48951;SDS011;34758;42.148;24.744;2022-08-01T12:44:44;1.27;;;1.08;;
48951;SDS011;34758;42.148;24.744;2022-08-01T12:47:12;3.63;;;0.95;;
48951;SDS011;34758;42.148;24.744;2022-08-01T12:49:40;2.53;;;1.25;;
48951;SDS011;34758;42.148;24.744;2022-08-01T12:52:08;1.63;;;1.02;;
48951;SDS011;34758;42.148;24.744;2022-08-01T12:57:29;3.03;;;0.70;;
48951;SDS011;34758;42.148;24.744;2022-08-01T13:00:07;2.20;;;1.02;;
48951;SDS011;34758;42.148;24.744;2022-08-01T13:02:36;1.60;;;0.75;;
48951;SDS011;34758;42.148;24.744;2022-08-01T13:05:04;1.58;;;0.95;;
48951;SDS011;34758;42.148;24.744;2022-08-01T13:07:39;1.30;;;1.05;;
48951;SDS011;34758;42.148;24.744;2022-08-01T13:10:09;1.65;;;1.13;;
48951;SDS011;34758;42.148;24.744;2022-08-01T13:12:36;1.10;;;1.08;;
48951;SDS011;34758;42.148;24.744;2022-08-01T13:15:17;2.28;;;1.10;;
48951;SDS011;34758;42.148;24.744;2022-08-01T13:17:45;2.55;;;1.10;;
48951;SDS011;34758;42.148;24.744;2022-08-01T13:20:26;3.47;;;1.45;;
48951;SDS011;34758;42.148;24.744;2022-08-01T13:25:23;1.83;;;1.10;;
48951;SDS011;34758;42.148;24.744;2022-08-01T13:33:17;5.45;;;1.10;;
48951;SDS011;34758;42.148;24.744;2022-08-01T13:35:44;1.55;;;0.90;;
48951;SDS011;34758;42.148;24.744;2022-08-01T13:38:12;1.38;;;1.20;;
48951;SDS011;34758;42.148;24.744;2022-08-01T13:40:41;1.38;;;1.13;;
48951;SDS011;34758;42.148;24.744;2022-08-01T13:43:08;2.88;;;1.63;;
48951;SDS011;34758;42.148;24.744;2022-08-01T13:45:34;3.33;;;2.10;;
48951;SDS011;34758;42.148;24.744;2022-08-01T13:48:01;4.55;;;1.45;;
48951;SDS011;34758;42.148;24.744;2022-08-01T13:50:29;2.28;;;1.50;;
48951;SDS011;34758;42.148;24.744;2022-08-01T13:52:56;2.00;;;1.63;;
48951;SDS011;34758;42.148;24.744;2022-08-01T13:55:22;1.98;;;1.10;;
48951;SDS011;34758;42.148;24.744;2022-08-01T13:57:51;2.05;;;1.10;;
48951;SDS011;34758;42.148;24.744;2022-08-01T14:00:18;1.77;;;0.88;;
48951;SDS011;34758;42.148;24.744;2022-08-01T14:02:45;3.33;;;0.98;;
48951;SDS011;34758;42.148;24.744;2022-08-01T14:05:12;1.52;;;0.77;;
48951;SDS011;34758;42.148;24.744;2022-08-01T14:07:38;1.58;;;0.90;;
48951;SDS011;34758;42.148;24.744;2022-08-01T14:10:06;0.80;;;0.80;;
48951;SDS011;34758;42.148;24.744;2022-08-01T14:12:34;1.35;;;1.23;;
48951;SDS011;34758;42.148;24.744;2022-08-01T14:15:02;1.95;;;1.10;;
48951;SDS011;34758;42.148;24.744;2022-08-01T14:17:30;1.73;;;1.63;;
48951;SDS011;34758;42.148;24.744;2022-08-01T14:19:57;2.10;;;1.92;;
48951;SDS011;34758;42.148;24.744;2022-08-01T14:22:24;1.83;;;1.17;;
48951;SDS011;34758;42.148;24.744;2022-08-01T14:24:51;1.73;;;1.25;;
48951;SDS011;34758;42.148;24.744;2022-08-01T14:27:18;1.20;;;1.10;;
48951;SDS011;34758;42.148;24.744;2022-08-01T14:29:45;2.00;;;1.10;;
48951;SDS011;34758;42.148;24.744;2022-08-01T14:32:14;3.22;;;1.52;;
48951;SDS011;34758;42.148;24.744;2022-08-01T14:34:41;2.55;;;1.20;;
48951;SDS011;34758;42.148;24.744;2022-08-01T14:37:07;1.35;;;0.95;;
48951;SDS011;34758;42.148;24.744;2022-08-01T14:39:34;0.95;;;0.85;;
48951;SDS011;34758;42.148;24.744;2022-08-01T14:42:01;1.08;;;1.00;;
48951;SDS011;34758;42.148;24.744;2022-08-01T14:44:29;1.70;;;1.33;;
48951;SDS011;34758;42.148;24.744;2022-08-01T14:46:56;5.70;;;3.25;;
48951;SDS011;34758;42.148;24.744;2022-08-01T14:49:25;4.25;;;2.45;;
48951;SDS011;34758;42.148;24.744;2022-08-01T14:51:52;1.48;;;1.20;;
48951;SDS011;34758;42.148;24.744;2022-08-01T14:54:19;2.78;;;1.40;;
48951;SDS011;34758;42.148;24.744;2022-08-01T14:56:46;2.50;;;1.15;;
48951;SDS011;34758;42.148;24.744;2022-08-01T14:59:12;3.55;;;1.40;;
48951;SDS011;34758;42.148;24.744;2022-08-01T15:01:40;2.10;;;0.80;;
48951;SDS011;34758;42.148;24.744;2022-08-01T15:04:06;0.88;;;0.80;;
48951;SDS011;34758;42.148;24.744;2022-08-01T15:06:34;2.40;;;1.20;;
48951;SDS011;34758;42.148;24.744;2022-08-01T15:09:01;1.98;;;0.98;;
48951;SDS011;34758;42.148;24.744;2022-08-01T15:11:29;1.98;;;0.70;;
48951;SDS011;34758;42.148;24.744;2022-08-01T15:13:56;1.60;;;0.90;;
48951;SDS011;34758;42.148;24.744;2022-08-01T15:16:40;2.30;;;1.13;;